sensor_id;sensor_type;location;lat;lon;timestamp;P1;P2;P0
50041;PMS7003;44598;51.606;5.912;2024-01-30T00:10:51;15.97;16.36;9.06
50041;PMS7003;44598;51.606;5.912;2024-01-30T00:24:11;18.01;18.76;9.82
50041;PMS7003;44598;51.606;5.912;2024-01-30T00:50:50;14.65;16.36;9.49
50041;PMS7003;44598;51.606;5.912;2024-01-30T01:04:09;16.69;17.78;9.6
50041;PMS7003;44598;51.606;5.912;2024-01-30T01:17:29;15.13;16.8;9.17
50041;PMS7003;44598;51.606;5.912;2024-01-30T01:30:49;15.37;16.9;8.73
50041;PMS7003;44598;51.606;5.912;2024-01-30T02:10:48;13.57;15.6;8.51
50041;PMS7003;44598;51.606;5.912;2024-01-30T02:24:08;14.05;15.49;8.18
50041;PMS7003;44598;51.606;5.912;2024-01-30T02:37:27;13.93;15.92;8.29
50041;PMS7003;44598;51.606;5.912;2024-01-30T02:50:47;14.17;15.92;8.51
50041;PMS7003;44598;51.606;5.912;2024-01-30T03:04:06;14.77;15.81;8.29
50041;PMS7003;44598;51.606;5.912;2024-01-30T03:17:26;13.93;15.6;8.84
50041;PMS7003;44598;51.606;5.912;2024-01-30T03:30:46;14.05;15.92;8.51
50041;PMS7003;44598;51.606;5.912;2024-01-30T03:44:05;12.61;14.51;7.64
50041;PMS7003;44598;51.606;5.912;2024-01-30T03:57:25;12.97;14.07;7.86
50041;PMS7003;44598;51.606;5.912;2024-01-30T04:10:45;11.89;13.85;8.08
50041;PMS7003;44598;51.606;5.912;2024-01-30T04:24:04;12.97;14.83;7.64
50041;PMS7003;44598;51.606;5.912;2024-01-30T04:37:24;12.25;13.63;7.09
50041;PMS7003;44598;51.606;5.912;2024-01-30T04:50:44;11.53;13.31;7.09
50041;PMS7003;44598;51.606;5.912;2024-01-30T05:04:03;10.81;12.87;7.2
50041;PMS7003;44598;51.606;5.912;2024-01-30T05:17:23;9.73;12.0;6.99
50041;PMS7003;44598;51.606;5.912;2024-01-30T05:30:43;10.33;12.54;6.88
50041;PMS7003;44598;51.606;5.912;2024-01-30T05:44:02;10.09;11.35;6.44
50041;PMS7003;44598;51.606;5.912;2024-01-30T05:57:22;10.09;12.44;7.09
50041;PMS7003;44598;51.606;5.912;2024-01-30T06:10:42;9.25;11.67;6.55
50041;PMS7003;44598;51.606;5.912;2024-01-30T06:24:01;10.09;11.02;6.66
50041;PMS7003;44598;51.606;5.912;2024-01-30T06:37:21;8.77;11.24;6.11
50041;PMS7003;44598;51.606;5.912;2024-01-30T06:50:41;8.77;11.02;6.66
50041;PMS7003;44598;51.606;5.912;2024-01-30T07:04:00;10.93;12.76;7.31
50041;PMS7003;44598;51.606;5.912;2024-01-30T07:17:20;8.89;11.02;6.44
50041;PMS7003;44598;51.606;5.912;2024-01-30T07:30:39;9.13;11.45;6.33
50041;PMS7003;44598;51.606;5.912;2024-01-30T07:43:59;10.69;12.0;7.31
50041;PMS7003;44598;51.606;5.912;2024-01-30T07:57:19;9.13;11.45;6.55
50041;PMS7003;44598;51.606;5.912;2024-01-30T08:10:38;8.65;11.13;6.55
50041;PMS7003;44598;51.606;5.912;2024-01-30T08:23:58;8.65;10.91;6.55
50041;PMS7003;44598;51.606;5.912;2024-01-30T08:50:37;7.69;10.26;6.11
50041;PMS7003;44598;51.606;5.912;2024-01-30T09:17:16;9.25;11.45;6.66
50041;PMS7003;44598;51.606;5.912;2024-01-30T09:30:36;8.53;10.69;6.55
50041;PMS7003;44598;51.606;5.912;2024-01-30T09:43:56;8.53;10.47;6.22
50041;PMS7003;44598;51.606;5.912;2024-01-30T09:57:15;9.13;10.36;6.33
50041;PMS7003;44598;51.606;5.912;2024-01-30T10:10:35;9.13;11.24;6.33
50041;PMS7003;44598;51.606;5.912;2024-01-30T10:37:14;10.33;11.35;6.55
50041;PMS7003;44598;51.606;5.912;2024-01-30T10:50:34;10.21;11.78;6.44
50041;PMS7003;44598;51.606;5.912;2024-01-30T11:03:54;9.73;11.78;6.88
50041;PMS7003;44598;51.606;5.912;2024-01-30T11:17:13;9.13;11.45;6.44
50041;PMS7003;44598;51.606;5.912;2024-01-30T11:30:33;8.89;10.91;6.55
50041;PMS7003;44598;51.606;5.912;2024-01-30T11:43:53;9.73;11.45;6.99
50041;PMS7003;44598;51.606;5.912;2024-01-30T12:10:32;8.53;10.69;6.55
50041;PMS7003;44598;51.606;5.912;2024-01-30T12:50:31;8.17;10.15;5.9
50041;PMS7003;44598;51.606;5.912;2024-01-30T13:03:50;5.65;8.29;5.57
50041;PMS7003;44598;51.606;5.912;2024-01-30T13:17:10;2.88;5.57;3.5
50041;PMS7003;44598;51.606;5.912;2024-01-30T13:30:30;0.01;2.73;1.86
50041;PMS7003;44598;51.606;5.912;2024-01-30T13:43:49;0.01;2.52;1.75
50041;PMS7003;44598;51.606;5.912;2024-01-30T14:23:48;0.01;2.73;1.75
50041;PMS7003;44598;51.606;5.912;2024-01-30T14:37:08;0.01;2.52;1.86
50041;PMS7003;44598;51.606;5.912;2024-01-30T14:50:27;0.01;2.41;1.75
50041;PMS7003;44598;51.606;5.912;2024-01-30T15:03:47;1.44;4.48;3.06
50041;PMS7003;44598;51.606;5.912;2024-01-30T15:17:07;0.12;3.17;2.41
50041;PMS7003;44598;51.606;5.912;2024-01-30T15:30:26;4.57;6.11;3.61
50041;PMS7003;44598;51.606;5.912;2024-01-30T15:43:46;5.05;7.31;4.48
50041;PMS7003;44598;51.606;5.912;2024-01-30T16:10:25;4.69;7.09;4.15
50041;PMS7003;44598;51.606;5.912;2024-01-30T16:23:45;3.48;6.22;3.61
50041;PMS7003;44598;51.606;5.912;2024-01-30T16:37:05;4.21;6.77;3.82
50041;PMS7003;44598;51.606;5.912;2024-01-30T16:50:24;3.97;6.66;3.82
50041;PMS7003;44598;51.606;5.912;2024-01-30T17:03:44;4.69;7.42;4.15
50041;PMS7003;44598;51.606;5.912;2024-01-30T17:17:04;7.09;8.73;4.91
50041;PMS7003;44598;51.606;5.912;2024-01-30T17:30:23;8.77;10.26;5.13
50041;PMS7003;44598;51.606;5.912;2024-01-30T17:43:43;11.53;13.2;6.0
50041;PMS7003;44598;51.606;5.912;2024-01-30T18:10:22;12.97;14.94;7.31
50041;PMS7003;44598;51.606;5.912;2024-01-30T18:23:42;14.17;15.92;7.42
50041;PMS7003;44598;51.606;5.912;2024-01-30T18:50:23;12.73;14.62;7.2
50041;PMS7003;44598;51.606;5.912;2024-01-30T19:03:43;11.41;13.53;6.66
50041;PMS7003;44598;51.606;5.912;2024-01-30T19:17:03;13.57;15.05;6.66
50041;PMS7003;44598;51.606;5.912;2024-01-30T19:30:23;13.21;15.16;6.99
50041;PMS7003;44598;51.606;5.912;2024-01-30T19:43:42;11.17;13.42;6.44
50041;PMS7003;44598;51.606;5.912;2024-01-30T19:57:02;12.97;14.94;7.2
50041;PMS7003;44598;51.606;5.912;2024-01-30T20:10:22;13.45;15.16;7.2
50041;PMS7003;44598;51.606;5.912;2024-01-30T20:23:41;12.61;14.62;6.66
50041;PMS7003;44598;51.606;5.912;2024-01-30T20:37:01;14.53;16.36;7.75
50041;PMS7003;44598;51.606;5.912;2024-01-30T20:50:20;13.93;15.71;7.31
50041;PMS7003;44598;51.606;5.912;2024-01-30T21:03:40;13.81;15.49;6.88
50041;PMS7003;44598;51.606;5.912;2024-01-30T21:43:39;7.45;9.71;4.91
50041;PMS7003;44598;51.606;5.912;2024-01-30T21:56:59;5.17;6.88;3.39
50041;PMS7003;44598;51.606;5.912;2024-01-30T22:10:18;4.69;6.44;2.95
50041;PMS7003;44598;51.606;5.912;2024-01-30T22:23:38;5.17;7.31;3.28
50041;PMS7003;44598;51.606;5.912;2024-01-30T22:36:58;4.93;7.31;3.61
50041;PMS7003;44598;51.606;5.912;2024-01-30T22:50:17;5.89;8.29;3.82
50041;PMS7003;44598;51.606;5.912;2024-01-30T23:03:37;6.25;8.29;4.15
50041;PMS7003;44598;51.606;5.912;2024-01-30T23:30:16;9.25;10.47;4.7
